sensor_id;sensor_type;location;lat;lon;timestamp;pressure;altitude;pressure_sealevel;temperature;humidity
60697;BME280;46536;54.376;19.858;2023-04-09T00:01:00;102587.77;;;8.10;67.01
60697;BME280;46536;54.376;19.858;2023-04-09T00:03:34;102588.28;;;8.12;67.04
60697;BME280;46536;54.376;19.858;2023-04-09T00:06:04;102587.42;;;8.15;66.98
60697;BME280;46536;54.376;19.858;2023-04-09T00:08:36;102584.85;;;8.16;67.17
60697;BME280;46536;54.376;19.858;2023-04-09T00:11:05;102584.16;;;8.18;67.22
60697;BME280;46536;54.376;19.858;2023-04-09T00:13:37;102586.77;;;8.22;67.15
60697;BME280;46536;54.376;19.858;2023-04-09T00:16:07;102591.11;;;8.26;67.12
60697;BME280;46536;54.376;19.858;2023-04-09T00:18:36;102592.49;;;8.30;67.01
60697;BME280;46536;54.376;19.858;2023-04-09T00:21:06;102592.02;;;8.33;67.05
60697;BME280;46536;54.376;19.858;2023-04-09T00:23:36;102588.23;;;8.37;67.03
60697;BME280;46536;54.376;19.858;2023-04-09T00:26:05;102589.98;;;8.41;66.97
60697;BME280;46536;54.376;19.858;2023-04-09T00:28:34;102584.43;;;8.40;66.96
60697;BME280;46536;54.376;19.858;2023-04-09T00:31:06;102586.34;;;8.43;66.91
60697;BME280;46536;54.376;19.858;2023-04-09T00:33:35;102582.52;;;8.45;66.89
60697;BME280;46536;54.376;19.858;2023-04-09T00:36:07;102583.06;;;8.50;66.84
60697;BME280;46536;54.376;19.858;2023-04-09T00:38:37;102584.47;;;8.55;66.72
60697;BME280;46536;54.376;19.858;2023-04-09T00:41:06;102586.90;;;8.61;66.68
60697;BME280;46536;54.376;19.858;2023-04-09T00:43:35;102583.77;;;8.63;66.72
60697;BME280;46536;54.376;19.858;2023-04-09T00:46:04;102584.84;;;8.69;66.62
60697;BME280;46536;54.376;19.858;2023-04-09T00:48:33;102586.75;;;8.73;66.43
60697;BME280;46536;54.376;19.858;2023-04-09T00:51:03;102590.20;;;8.77;66.53
60697;BME280;46536;54.376;19.858;2023-04-09T00:53:32;102586.91;;;8.81;66.54
60697;BME280;46536;54.376;19.858;2023-04-09T00:56:01;102589.85;;;8.83;66.44
60697;BME280;46536;54.376;19.858;2023-04-09T00:58:31;102588.84;;;8.87;66.31
60697;BME280;46536;54.376;19.858;2023-04-09T01:01:01;102590.23;;;8.91;66.16
60697;BME280;46536;54.376;19.858;2023-04-09T01:03:30;102588.66;;;8.93;66.13
60697;BME280;46536;54.376;19.858;2023-04-09T01:06:06;102585.36;;;8.96;66.09
60697;BME280;46536;54.376;19.858;2023-04-09T01:09:00;102583.80;;;8.99;66.05
60697;BME280;46536;54.376;19.858;2023-04-09T01:11:41;102585.55;;;9.03;66.07
60697;BME280;46536;54.376;19.858;2023-04-09T01:14:34;102588.67;;;9.05;65.97
60697;BME280;46536;54.376;19.858;2023-04-09T01:17:17;102591.43;;;9.10;66.08
60697;BME280;46536;54.376;19.858;2023-04-09T01:20:00;102586.23;;;9.14;65.99
60697;BME280;46536;54.376;19.858;2023-04-09T01:28:15;102575.98;;;9.19;66.19
60697;BME280;46536;54.376;19.858;2023-04-09T01:30:48;102578.59;;;9.19;66.33
60697;BME280;46536;54.376;19.858;2023-04-09T01:33:19;102572.53;;;9.20;66.25
60697;BME280;46536;54.376;19.858;2023-04-09T01:35:51;102570.11;;;9.21;66.28
60697;BME280;46536;54.376;19.858;2023-04-09T01:38:21;102568.55;;;9.22;66.49
60697;BME280;46536;54.376;19.858;2023-04-09T01:40:53;102562.13;;;9.23;66.58
60697;BME280;46536;54.376;19.858;2023-04-09T01:43:24;102559.70;;;9.23;66.76
60697;BME280;46536;54.376;19.858;2023-04-09T01:45:54;102563.86;;;9.24;66.83
60697;BME280;46536;54.376;19.858;2023-04-09T01:48:24;102565.08;;;9.23;67.07
60697;BME280;46536;54.376;19.858;2023-04-09T01:50:55;102564.91;;;9.20;67.27
60697;BME280;46536;54.376;19.858;2023-04-09T01:53:24;102567.48;;;9.18;67.46
60697;BME280;46536;54.376;19.858;2023-04-09T01:55:59;102570.79;;;9.15;67.69
60697;BME280;46536;54.376;19.858;2023-04-09T01:58:29;102574.45;;;9.11;67.83
60697;BME280;46536;54.376;19.858;2023-04-09T02:01:12;102575.66;;;9.08;67.90
60697;BME280;46536;54.376;19.858;2023-04-09T02:03:55;102576.37;;;9.06;68.05
60697;BME280;46536;54.376;19.858;2023-04-09T02:09:01;102573.58;;;9.02;68.50
60697;BME280;46536;54.376;19.858;2023-04-09T02:11:35;102572.20;;;8.96;68.77
60697;BME280;46536;54.376;19.858;2023-04-09T02:14:06;102573.41;;;8.93;68.77
60697;BME280;46536;54.376;19.858;2023-04-09T02:16:39;102574.63;;;8.90;69.01
60697;BME280;46536;54.376;19.858;2023-04-09T02:19:08;102571.69;;;8.90;69.20
60697;BME280;46536;54.376;19.858;2023-04-09T02:21:41;102571.86;;;8.90;69.31
60697;BME280;46536;54.376;19.858;2023-04-09T02:24:10;102573.41;;;8.90;69.31
60697;BME280;46536;54.376;19.858;2023-04-09T02:26:39;102571.16;;;8.89;69.36
60697;BME280;46536;54.376;19.858;2023-04-09T02:29:08;102571.85;;;8.89;69.32
60697;BME280;46536;54.376;19.858;2023-04-09T02:31:40;102570.64;;;8.88;69.53
60697;BME280;46536;54.376;19.858;2023-04-09T02:34:13;102567.35;;;8.88;69.47
60697;BME280;46536;54.376;19.858;2023-04-09T02:36:45;102568.92;;;8.86;69.54
60697;BME280;46536;54.376;19.858;2023-04-09T02:39:14;102568.56;;;8.85;69.60
60697;BME280;46536;54.376;19.858;2023-04-09T02:41:43;102565.59;;;8.84;69.57
60697;BME280;46536;54.376;19.858;2023-04-09T02:44:12;102568.02;;;8.83;69.58
60697;BME280;46536;54.376;19.858;2023-04-09T02:46:43;102560.23;;;8.81;69.73
60697;BME280;46536;54.376;19.858;2023-04-09T02:49:13;102565.60;;;8.80;69.80
60697;BME280;46536;54.376;19.858;2023-04-09T02:51:43;102568.02;;;8.81;69.76
60697;BME280;46536;54.376;19.858;2023-04-09T02:54:15;102569.06;;;8.82;69.66
60697;BME280;46536;54.376;19.858;2023-04-09T02:56:44;102570.10;;;8.82;69.65
60697;BME280;46536;54.376;19.858;2023-04-09T02:59:13;102570.80;;;8.82;69.63
60697;BME280;46536;54.376;19.858;2023-04-09T03:01:42;102569.94;;;8.80;69.74
60697;BME280;46536;54.376;19.858;2023-04-09T03:04:12;102570.97;;;8.79;69.83
60697;BME280;46536;54.376;19.858;2023-04-09T03:06:44;102569.94;;;8.77;69.79
60697;BME280;46536;54.376;19.858;2023-04-09T03:09:13;102572.19;;;8.79;69.80
60697;BME280;46536;54.376;19.858;2023-04-09T03:11:54;102573.40;;;8.77;69.92
60697;BME280;46536;54.376;19.858;2023-04-09T03:14:24;102572.71;;;8.74;70.00
60697;BME280;46536;54.376;19.858;2023-04-09T03:16:57;102576.36;;;8.69;69.99
60697;BME280;46536;54.376;19.858;2023-04-09T03:19:26;102569.05;;;8.64;70.11
60697;BME280;46536;54.376;19.858;2023-04-09T03:21:56;102568.89;;;8.60;70.23
60697;BME280;46536;54.376;19.858;2023-04-09T03:24:26;102569.05;;;8.57;70.40
60697;BME280;46536;54.376;19.858;2023-04-09T03:26:59;102570.27;;;8.56;70.34
60697;BME280;46536;54.376;19.858;2023-04-09T03:29:28;102566.61;;;8.50;70.51
60697;BME280;46536;54.376;19.858;2023-04-09T03:31:57;102562.62;;;8.42;70.50
60697;BME280;46536;54.376;19.858;2023-04-09T03:34:27;102562.42;;;8.34;70.53
60697;BME280;46536;54.376;19.858;2023-04-09T03:45:10;102564.92;;;8.10;70.87
60697;BME280;46536;54.376;19.858;2023-04-09T03:47:43;102570.27;;;8.06;71.02
60697;BME280;46536;54.376;19.858;2023-04-09T03:50:13;102569.05;;;8.04;71.05
60697;BME280;46536;54.376;19.858;2023-04-09T03:52:46;102569.23;;;8.02;70.88
60697;BME280;46536;54.376;19.858;2023-04-09T03:55:15;102570.77;;;8.00;71.04
60697;BME280;46536;54.376;19.858;2023-04-09T03:57:45;102567.63;;;7.95;71.04
60697;BME280;46536;54.376;19.858;2023-04-09T04:00:16;102565.70;;;7.91;71.14
60697;BME280;46536;54.376;19.858;2023-04-09T04:02:51;102568.13;;;7.90;71.18
60697;BME280;46536;54.376;19.858;2023-04-09T04:05:38;102575.56;;;7.89;71.41
60697;BME280;46536;54.376;19.858;2023-04-09T04:08:08;102576.95;;;7.87;71.26
60697;BME280;46536;54.376;19.858;2023-04-09T04:10:37;102580.77;;;7.87;71.32
60697;BME280;46536;54.376;19.858;2023-04-09T04:13:07;102576.78;;;7.88;71.34
60697;BME280;46536;54.376;19.858;2023-04-09T04:15:46;102577.98;;;7.90;71.25
60697;BME280;46536;54.376;19.858;2023-04-09T04:18:16;102570.04;;;7.93;71.46
60697;BME280;46536;54.376;19.858;2023-04-09T04:20:48;102569.70;;;7.96;71.32
60697;BME280;46536;54.376;19.858;2023-04-09T04:23:18;102570.94;;;7.99;71.32
60697;BME280;46536;54.376;19.858;2023-04-09T04:25:52;102570.96;;;8.02;71.16
60697;BME280;46536;54.376;19.858;2023-04-09T04:28:26;102573.21;;;8.04;71.13
60697;BME280;46536;54.376;19.858;2023-04-09T04:31:01;102575.98;;;8.05;71.21
60697;BME280;46536;54.376;19.858;2023-04-09T04:33:41;102573.05;;;8.07;71.41
60697;BME280;46536;54.376;19.858;2023-04-09T04:36:17;102571.49;;;8.11;71.29
60697;BME280;46536;54.376;19.858;2023-04-09T04:38:52;102566.48;;;8.15;71.20
60697;BME280;46536;54.376;19.858;2023-04-09T04:41:30;102571.36;;;8.20;71.04
60697;BME280;46536;54.376;19.858;2023-04-09T04:44:25;102575.52;;;8.26;70.94
60697;BME280;46536;54.376;19.858;2023-04-09T04:47:04;102574.32;;;8.30;70.97
60697;BME280;46536;54.376;19.858;2023-04-09T04:49:35;102574.56;;;8.36;70.79
60697;BME280;46536;54.376;19.858;2023-04-09T04:52:05;102577.34;;;8.40;70.76
60697;BME280;46536;54.376;19.858;2023-04-09T04:54:36;102574.40;;;8.43;70.66
60697;BME280;46536;54.376;19.858;2023-04-09T04:57:08;102576.12;;;8.48;70.46
60697;BME280;46536;54.376;19.858;2023-04-09T04:59:40;102580.30;;;8.52;70.54
60697;BME280;46536;54.376;19.858;2023-04-09T05:05:23;102580.83;;;8.60;70.30
60697;BME280;46536;54.376;19.858;2023-04-09T05:07:54;102584.29;;;8.63;70.26
60697;BME280;46536;54.376;19.858;2023-04-09T05:10:35;102584.64;;;8.66;70.16
60697;BME280;46536;54.376;19.858;2023-04-09T05:16:05;102585.89;;;8.70;70.00
60697;BME280;46536;54.376;19.858;2023-04-09T05:18:38;102584.67;;;8.71;69.97
60697;BME280;46536;54.376;19.858;2023-04-09T05:21:28;102585.36;;;8.73;69.85
60697;BME280;46536;54.376;19.858;2023-04-09T05:23:57;102587.61;;;8.74;69.92
60697;BME280;46536;54.376;19.858;2023-04-09T05:26:56;102587.61;;;8.78;69.85
60697;BME280;46536;54.376;19.858;2023-04-09T05:29:29;102588.30;;;8.81;69.77
60697;BME280;46536;54.376;19.858;2023-04-09T05:31:59;102584.48;;;8.83;69.73
60697;BME280;46536;54.376;19.858;2023-04-09T05:34:39;102589.19;;;8.87;69.61
60697;BME280;46536;54.376;19.858;2023-04-09T05:37:12;102589.36;;;8.89;69.57
60697;BME280;46536;54.376;19.858;2023-04-09T05:39:53;102587.80;;;8.88;69.33
60697;BME280;46536;54.376;19.858;2023-04-09T05:42:25;102589.54;;;8.87;69.50
60697;BME280;46536;54.376;19.858;2023-04-09T05:45:18;102586.77;;;8.91;69.59
60697;BME280;46536;54.376;19.858;2023-04-09T05:47:58;102585.37;;;8.92;69.53
60697;BME280;46536;54.376;19.858;2023-04-09T05:50:51;102589.02;;;8.94;69.63
60697;BME280;46536;54.376;19.858;2023-04-09T05:53:40;102592.11;;;9.00;69.71
60697;BME280;46536;54.376;19.858;2023-04-09T05:56:18;102595.77;;;9.01;69.19
60697;BME280;46536;54.376;19.858;2023-04-09T05:59:28;102603.21;;;9.01;68.99
60697;BME280;46536;54.376;19.858;2023-04-09T06:02:22;102609.13;;;9.05;69.12
60697;BME280;46536;54.376;19.858;2023-04-09T06:05:39;102607.73;;;9.11;68.93
60697;BME280;46536;54.376;19.858;2023-04-09T06:08:09;102608.75;;;9.17;68.90
60697;BME280;46536;54.376;19.858;2023-04-09T06:10:56;102609.81;;;9.22;68.70
60697;BME280;46536;54.376;19.858;2023-04-09T06:13:37;102608.24;;;9.26;68.66
60697;BME280;46536;54.376;19.858;2023-04-09T06:16:07;102608.41;;;9.29;68.37
60697;BME280;46536;54.376;19.858;2023-04-09T06:18:45;102607.02;;;9.29;68.26
60697;BME280;46536;54.376;19.858;2023-04-09T06:21:59;102607.73;;;9.28;68.20
60697;BME280;46536;54.376;19.858;2023-04-09T06:25:01;102607.73;;;9.26;68.07
60697;BME280;46536;54.376;19.858;2023-04-09T06:27:45;102606.34;;;9.24;67.89
60697;BME280;46536;54.376;19.858;2023-04-09T06:30:30;102607.56;;;9.24;67.97
60697;BME280;46536;54.376;19.858;2023-04-09T06:33:25;102610.33;;;9.24;67.97
60697;BME280;46536;54.376;19.858;2023-04-09T06:35:59;102613.80;;;9.21;67.69
60697;BME280;46536;54.376;19.858;2023-04-09T06:38:38;102616.22;;;9.14;67.59
60697;BME280;46536;54.376;19.858;2023-04-09T06:41:17;102613.96;;;9.08;67.84
60697;BME280;46536;54.376;19.858;2023-04-09T06:43:57;102616.39;;;9.05;68.11
60697;BME280;46536;54.376;19.858;2023-04-09T06:46:32;102620.23;;;9.04;68.15
60697;BME280;46536;54.376;19.858;2023-04-09T06:52:55;102617.60;;;8.98;68.32
60697;BME280;46536;54.376;19.858;2023-04-09T06:58:50;102624.19;;;8.94;68.24
60697;BME280;46536;54.376;19.858;2023-04-09T07:01:22;102621.41;;;8.96;68.21
60697;BME280;46536;54.376;19.858;2023-04-09T07:04:04;102624.35;;;8.95;68.05
60697;BME280;46536;54.376;19.858;2023-04-09T07:06:34;102626.27;;;8.95;67.94
60697;BME280;46536;54.376;19.858;2023-04-09T07:09:08;102627.31;;;8.91;67.88
60697;BME280;46536;54.376;19.858;2023-04-09T07:11:40;102626.95;;;8.86;67.95
60697;BME280;46536;54.376;19.858;2023-04-09T07:14:22;102626.41;;;8.83;68.10
60697;BME280;46536;54.376;19.858;2023-04-09T07:17:04;102629.38;;;8.85;68.16
60697;BME280;46536;54.376;19.858;2023-04-09T07:19:38;102629.23;;;8.89;68.34
60697;BME280;46536;54.376;19.858;2023-04-09T07:22:13;102630.25;;;8.91;68.24
60697;BME280;46536;54.376;19.858;2023-04-09T07:25:03;102631.80;;;8.93;67.96
60697;BME280;46536;54.376;19.858;2023-04-09T07:27:42;102637.69;;;8.99;67.93
60697;BME280;46536;54.376;19.858;2023-04-09T07:30:15;102634.42;;;9.03;67.70
60697;BME280;46536;54.376;19.858;2023-04-09T07:32:50;102637.20;;;9.03;67.47
60697;BME280;46536;54.376;19.858;2023-04-09T07:35:20;102636.86;;;9.05;67.61
60697;BME280;46536;54.376;19.858;2023-04-09T07:38:02;102633.90;;;9.09;67.61
60697;BME280;46536;54.376;19.858;2023-04-09T07:40:33;102634.25;;;9.11;67.42
60697;BME280;46536;54.376;19.858;2023-04-09T07:43:04;102631.83;;;9.10;67.59
60697;BME280;46536;54.376;19.858;2023-04-09T07:45:35;102633.73;;;9.12;67.77
60697;BME280;46536;54.376;19.858;2023-04-09T07:48:25;102632.34;;;9.15;67.85
60697;BME280;46536;54.376;19.858;2023-04-09T07:51:03;102631.81;;;9.18;67.73
60697;BME280;46536;54.376;19.858;2023-04-09T07:53:40;102630.44;;;9.22;67.49
60697;BME280;46536;54.376;19.858;2023-04-09T07:56:21;102630.45;;;9.23;67.26
60697;BME280;46536;54.376;19.858;2023-04-09T07:58:50;102629.56;;;9.25;67.34
60697;BME280;46536;54.376;19.858;2023-04-09T08:01:25;102628.00;;;9.27;67.24
60697;BME280;46536;54.376;19.858;2023-04-09T08:04:29;102629.40;;;9.25;66.89
60697;BME280;46536;54.376;19.858;2023-04-09T08:07:18;102627.49;;;9.24;66.88
60697;BME280;46536;54.376;19.858;2023-04-09T08:12:50;102628.86;;;9.32;67.14
60697;BME280;46536;54.376;19.858;2023-04-09T08:15:34;102627.48;;;9.39;67.09
60697;BME280;46536;54.376;19.858;2023-04-09T08:18:13;102625.55;;;9.47;66.91
60697;BME280;46536;54.376;19.858;2023-04-09T08:20:55;102628.49;;;9.53;66.37
60697;BME280;46536;54.376;19.858;2023-04-09T08:23:36;102629.55;;;9.57;66.15
60697;BME280;46536;54.376;19.858;2023-04-09T08:26:05;102627.96;;;9.62;66.24
60697;BME280;46536;54.376;19.858;2023-04-09T08:28:34;102628.82;;;9.67;66.09
60697;BME280;46536;54.376;19.858;2023-04-09T08:31:33;102633.50;;;9.75;66.22
60697;BME280;46536;54.376;19.858;2023-04-09T08:34:07;102626.68;;;9.86;65.77
60697;BME280;46536;54.376;19.858;2023-04-09T08:36:40;102630.98;;;10.00;65.57
60697;BME280;46536;54.376;19.858;2023-04-09T08:42:20;102627.17;;;10.43;65.46
60697;BME280;46536;54.376;19.858;2023-04-09T08:45:02;102621.83;;;10.69;65.26
60697;BME280;46536;54.376;19.858;2023-04-09T08:47:35;102628.24;;;10.93;64.55
60697;BME280;46536;54.376;19.858;2023-04-09T08:50:25;102620.04;;;11.19;63.77
60697;BME280;46536;54.376;19.858;2023-04-09T08:53:07;102621.42;;;11.40;63.11
60697;BME280;46536;54.376;19.858;2023-04-09T08:55:36;102620.33;;;11.62;62.48
60697;BME280;46536;54.376;19.858;2023-04-09T08:58:08;102616.69;;;11.79;62.05
60697;BME280;46536;54.376;19.858;2023-04-09T09:00:38;102616.61;;;12.02;61.94
60697;BME280;46536;54.376;19.858;2023-04-09T09:03:16;102614.02;;;12.28;61.39
60697;BME280;46536;54.376;19.858;2023-04-09T09:05:45;102615.79;;;12.51;61.00
60697;BME280;46536;54.376;19.858;2023-04-09T09:08:24;102617.52;;;12.76;60.34
60697;BME280;46536;54.376;19.858;2023-04-09T09:10:54;102621.67;;;13.00;59.89
60697;BME280;46536;54.376;19.858;2023-04-09T09:13:27;102625.55;;;13.20;59.23
60697;BME280;46536;54.376;19.858;2023-04-09T09:16:13;102626.25;;;13.41;58.55
60697;BME280;46536;54.376;19.858;2023-04-09T09:18:43;102626.96;;;13.59;57.70
60697;BME280;46536;54.376;19.858;2023-04-09T09:21:16;102630.56;;;13.72;56.77
60697;BME280;46536;54.376;19.858;2023-04-09T09:23:46;102631.35;;;13.85;56.72
60697;BME280;46536;54.376;19.858;2023-04-09T09:26:22;102632.59;;;14.02;56.37
60697;BME280;46536;54.376;19.858;2023-04-09T09:28:52;102629.80;;;14.19;55.90
60697;BME280;46536;54.376;19.858;2023-04-09T09:31:23;102636.32;;;14.33;55.24
60697;BME280;46536;54.376;19.858;2023-04-09T09:33:53;102635.20;;;14.45;55.31
60697;BME280;46536;54.376;19.858;2023-04-09T09:36:33;102636.30;;;14.59;54.71
60697;BME280;46536;54.376;19.858;2023-04-09T09:39:03;102634.99;;;14.70;54.25
60697;BME280;46536;54.376;19.858;2023-04-09T09:41:39;102636.75;;;14.84;54.05
60697;BME280;46536;54.376;19.858;2023-04-09T09:44:11;102633.06;;;15.00;53.66
60697;BME280;46536;54.376;19.858;2023-04-09T09:46:44;102632.85;;;15.15;53.07
60697;BME280;46536;54.376;19.858;2023-04-09T09:49:13;102623.16;;;15.31;53.05
60697;BME280;46536;54.376;19.858;2023-04-09T09:51:42;102626.55;;;15.49;53.08
60697;BME280;46536;54.376;19.858;2023-04-09T09:54:14;102628.75;;;15.58;52.16
60697;BME280;46536;54.376;19.858;2023-04-09T09:56:51;102625.31;;;15.56;51.83
60697;BME280;46536;54.376;19.858;2023-04-09T09:59:25;102627.72;;;15.58;51.64
60697;BME280;46536;54.376;19.858;2023-04-09T10:02:04;102622.95;;;15.59;51.32
60697;BME280;46536;54.376;19.858;2023-04-09T10:04:34;102621.27;;;15.56;50.73
60697;BME280;46536;54.376;19.858;2023-04-09T10:07:06;102614.58;;;15.51;51.02
60697;BME280;46536;54.376;19.858;2023-04-09T10:09:44;102614.06;;;15.51;51.07
60697;BME280;46536;54.376;19.858;2023-04-09T10:12:17;102614.48;;;15.49;50.75
60697;BME280;46536;54.376;19.858;2023-04-09T10:14:54;102615.38;;;15.41;50.81
60697;BME280;46536;54.376;19.858;2023-04-09T10:17:27;102609.77;;;15.41;51.30
60697;BME280;46536;54.376;19.858;2023-04-09T10:20:18;102613.02;;;15.44;51.26
60697;BME280;46536;54.376;19.858;2023-04-09T10:22:51;102609.34;;;15.45;51.02
60697;BME280;46536;54.376;19.858;2023-04-09T10:25:21;102606.09;;;15.41;50.53
60697;BME280;46536;54.376;19.858;2023-04-09T10:28:01;102604.79;;;15.37;50.36
60697;BME280;46536;54.376;19.858;2023-04-09T10:30:33;102606.41;;;15.30;49.86
60697;BME280;46536;54.376;19.858;2023-04-09T10:33:10;102605.19;;;15.22;49.89
60697;BME280;46536;54.376;19.858;2023-04-09T10:35:40;102604.52;;;15.15;50.41
60697;BME280;46536;54.376;19.858;2023-04-09T10:38:10;102606.37;;;15.11;50.81
60697;BME280;46536;54.376;19.858;2023-04-09T10:40:40;102609.38;;;15.09;50.79
60697;BME280;46536;54.376;19.858;2023-04-09T10:43:10;102610.52;;;15.05;51.18
60697;BME280;46536;54.376;19.858;2023-04-09T10:45:41;102611.71;;;14.99;51.26
60697;BME280;46536;54.376;19.858;2023-04-09T10:48:11;102615.76;;;14.92;51.13
60697;BME280;46536;54.376;19.858;2023-04-09T10:50:43;102610.25;;;14.81;51.55
60697;BME280;46536;54.376;19.858;2023-04-09T10:53:24;102609.20;;;14.73;51.84
60697;BME280;46536;54.376;19.858;2023-04-09T10:55:55;102609.58;;;14.65;51.96
60697;BME280;46536;54.376;19.858;2023-04-09T10:58:24;102608.66;;;14.51;52.06
60697;BME280;46536;54.376;19.858;2023-04-09T11:00:53;102610.95;;;14.42;52.50
60697;BME280;46536;54.376;19.858;2023-04-09T11:03:27;102611.20;;;14.38;52.84
60697;BME280;46536;54.376;19.858;2023-04-09T11:06:03;102611.81;;;14.34;53.07
60697;BME280;46536;54.376;19.858;2023-04-09T11:08:37;102612.23;;;14.31;53.10
60697;BME280;46536;54.376;19.858;2023-04-09T11:11:07;102610.01;;;14.29;53.26
60697;BME280;46536;54.376;19.858;2023-04-09T11:13:36;102610.73;;;14.28;53.28
60697;BME280;46536;54.376;19.858;2023-04-09T11:16:05;102610.22;;;14.28;53.33
60697;BME280;46536;54.376;19.858;2023-04-09T11:18:35;102612.30;;;14.35;53.34
60697;BME280;46536;54.376;19.858;2023-04-09T11:21:05;102612.27;;;14.46;53.60
60697;BME280;46536;54.376;19.858;2023-04-09T11:23:34;102609.46;;;14.62;53.78
60697;BME280;46536;54.376;19.858;2023-04-09T11:26:04;102612.81;;;14.83;53.61
60697;BME280;46536;54.376;19.858;2023-04-09T11:28:33;102604.14;;;15.02;53.31
60697;BME280;46536;54.376;19.858;2023-04-09T11:31:04;102605.74;;;15.15;52.56
60697;BME280;46536;54.376;19.858;2023-04-09T11:33:36;102604.38;;;15.26;52.54
60697;BME280;46536;54.376;19.858;2023-04-09T11:36:06;102604.66;;;15.35;52.09
60697;BME280;46536;54.376;19.858;2023-04-09T11:38:37;102611.06;;;15.45;51.67
60697;BME280;46536;54.376;19.858;2023-04-09T11:41:06;102615.67;;;15.50;51.59
60697;BME280;46536;54.376;19.858;2023-04-09T11:43:40;102613.88;;;15.58;51.49
60697;BME280;46536;54.376;19.858;2023-04-09T11:46:09;102617.81;;;15.63;51.23
60697;BME280;46536;54.376;19.858;2023-04-09T11:48:40;102615.73;;;15.62;50.95
60697;BME280;46536;54.376;19.858;2023-04-09T11:51:09;102617.83;;;15.62;51.00
60697;BME280;46536;54.376;19.858;2023-04-09T11:53:38;102614.75;;;15.66;50.86
60697;BME280;46536;54.376;19.858;2023-04-09T11:56:09;102609.39;;;15.76;50.98
60697;BME280;46536;54.376;19.858;2023-04-09T11:58:44;102609.55;;;15.88;50.87
60697;BME280;46536;54.376;19.858;2023-04-09T12:01:15;102604.14;;;16.00;50.71
60697;BME280;46536;54.376;19.858;2023-04-09T12:03:54;102604.78;;;16.14;50.89
60697;BME280;46536;54.376;19.858;2023-04-09T12:06:25;102606.86;;;16.26;50.47
60697;BME280;46536;54.376;19.858;2023-04-09T12:08:56;102608.27;;;16.38;50.11
60697;BME280;46536;54.376;19.858;2023-04-09T12:11:29;102604.95;;;16.43;49.62
60697;BME280;46536;54.376;19.858;2023-04-09T12:14:03;102597.29;;;16.46;49.51
60697;BME280;46536;54.376;19.858;2023-04-09T12:16:35;102598.05;;;16.56;49.02
60697;BME280;46536;54.376;19.858;2023-04-09T12:19:08;102597.56;;;16.60;48.52
60697;BME280;46536;54.376;19.858;2023-04-09T12:21:52;102594.96;;;16.59;48.64
60697;BME280;46536;54.376;19.858;2023-04-09T12:24:25;102592.09;;;16.56;48.47
60697;BME280;46536;54.376;19.858;2023-04-09T12:26:56;102595.04;;;16.52;48.69
60697;BME280;46536;54.376;19.858;2023-04-09T12:29:25;102596.54;;;16.49;48.74
60697;BME280;46536;54.376;19.858;2023-04-09T12:31:55;102595.33;;;16.48;48.56
60697;BME280;46536;54.376;19.858;2023-04-09T12:34:24;102597.30;;;16.46;48.40
60697;BME280;46536;54.376;19.858;2023-04-09T12:36:55;102599.10;;;16.45;48.23
60697;BME280;46536;54.376;19.858;2023-04-09T12:39:25;102592.97;;;16.45;48.13
60697;BME280;46536;54.376;19.858;2023-04-09T12:41:54;102597.02;;;16.45;48.00
60697;BME280;46536;54.376;19.858;2023-04-09T12:44:23;102595.05;;;16.40;47.53
60697;BME280;46536;54.376;19.858;2023-04-09T12:46:52;102595.40;;;16.29;47.53
60697;BME280;46536;54.376;19.858;2023-04-09T12:49:22;102595.50;;;16.20;47.77
60697;BME280;46536;54.376;19.858;2023-04-09T12:51:51;102591.48;;;16.13;47.74
60697;BME280;46536;54.376;19.858;2023-04-09T12:54:22;102589.90;;;16.07;47.87
60697;BME280;46536;54.376;19.858;2023-04-09T12:56:51;102593.96;;;16.07;48.12
60697;BME280;46536;54.376;19.858;2023-04-09T12:59:21;102588.45;;;16.04;47.68
60697;BME280;46536;54.376;19.858;2023-04-09T13:01:51;102587.95;;;15.96;47.72
60697;BME280;46536;54.376;19.858;2023-04-09T13:04:26;102586.52;;;15.91;47.56
60697;BME280;46536;54.376;19.858;2023-04-09T13:07:32;102586.67;;;15.86;48.34
60697;BME280;46536;54.376;19.858;2023-04-09T13:10:09;102587.86;;;15.93;48.36
60697;BME280;46536;54.376;19.858;2023-04-09T13:12:53;102578.73;;;15.94;47.66
60697;BME280;46536;54.376;19.858;2023-04-09T13:15:46;102582.83;;;15.91;47.78
60697;BME280;46536;54.376;19.858;2023-04-09T13:18:25;102588.63;;;15.91;48.08
60697;BME280;46536;54.376;19.858;2023-04-09T13:25:08;102579.41;;;15.83;48.46
60697;BME280;46536;54.376;19.858;2023-04-09T13:27:40;102576.61;;;15.83;48.68
60697;BME280;46536;54.376;19.858;2023-04-09T13:30:15;102576.14;;;15.87;48.54
60697;BME280;46536;54.376;19.858;2023-04-09T13:33:09;102579.16;;;15.85;48.33
60697;BME280;46536;54.376;19.858;2023-04-09T13:36:18;102576.21;;;15.78;48.36
60697;BME280;46536;54.376;19.858;2023-04-09T13:38:52;102577.67;;;15.76;48.57
60697;BME280;46536;54.376;19.858;2023-04-09T13:41:22;102577.40;;;15.73;48.28
60697;BME280;46536;54.376;19.858;2023-04-09T13:44:00;102583.52;;;15.67;48.51
60697;BME280;46536;54.376;19.858;2023-04-09T13:46:29;102584.91;;;15.68;48.60
60697;BME280;46536;54.376;19.858;2023-04-09T13:49:07;102587.98;;;15.65;48.51
60697;BME280;46536;54.376;19.858;2023-04-09T13:51:36;102588.20;;;15.63;48.45
60697;BME280;46536;54.376;19.858;2023-04-09T13:54:07;102583.17;;;15.60;48.04
60697;BME280;46536;54.376;19.858;2023-04-09T13:56:39;102583.23;;;15.45;47.69
60697;BME280;46536;54.376;19.858;2023-04-09T13:59:08;102578.67;;;15.32;48.14
60697;BME280;46536;54.376;19.858;2023-04-09T14:01:37;102582.17;;;15.26;48.27
60697;BME280;46536;54.376;19.858;2023-04-09T14:04:07;102578.30;;;15.20;48.47